Time;durP1;ratioP1;P1;durP2;ratioP2;P2;SDS_P1;SDS_P2;PMS_P1;PMS_P2;Temp;Humidity;BMP_temperature;BMP_pressure;BME280_temperature;BME280_humidity;BME280_pressure;Samples;Min_cycle;Max_cycle;Signal;HPM_P1;HPM_P2
2022/07/28 00:00:06;;;;;;;18.20;8.40;;;;;;;;;;5031442;28;20033;-66
2022/07/28 00:02:31;;;;;;;19.73;8.10;;;;;;;;;;5031129;28;20025;-66
2022/07/28 00:04:57;;;;;;;15.03;6.93;;;;;;;;;;5030354;28;20417;-66
2022/07/28 00:07:22;;;;;;;14.27;7.27;;;;;;;;;;5031483;28;20047;-65
2022/07/28 00:09:47;;;;;;;11.37;6.00;;;;;;;;;;5031848;28;20508;-65
2022/07/28 00:12:13;;;;;;;11.37;6.00;;;;;;;;;;5031508;28;20029;-66
2022/07/28 00:14:38;;;;;;;16.30;6.80;;;;;;;;;;5033582;28;20030;-66
2022/07/28 00:17:03;;;;;;;11.77;5.63;;;;;;;;;;5031558;28;20076;-65
2022/07/28 00:19:28;;;;;;;14.80;6.87;;;;;;;;;;5030904;28;20031;-65
2022/07/28 00:21:54;;;;;;;16.60;7.07;;;;;;;;;;5031747;28;20037;-66
2022/07/28 00:24:19;;;;;;;23.83;8.40;;;;;;;;;;5027682;28;20022;-65
2022/07/28 00:26:44;;;;;;;13.90;7.77;;;;;;;;;;5031529;28;20025;-65
2022/07/28 00:29:09;;;;;;;14.17;7.67;;;;;;;;;;5030901;28;20021;-66
2022/07/28 00:31:35;;;;;;;15.60;7.97;;;;;;;;;;5031652;28;20025;-66
2022/07/28 00:34:00;;;;;;;19.30;8.40;;;;;;;;;;5030152;28;20030;-66
2022/07/28 00:36:25;;;;;;;16.40;8.20;;;;;;;;;;5031157;28;20448;-66
2022/07/28 00:38:50;;;;;;;19.60;7.47;;;;;;;;;;5030575;28;20049;-65
2022/07/28 00:41:18;;;;;;;16.33;8.20;;;;;;;;;;5030546;28;20040;-65
2022/07/28 00:43:47;;;;;;;15.33;7.63;;;;;;;;;;5029116;28;20033;-65
2022/07/28 00:46:14;;;;;;;18.33;8.70;;;;;;;;;;5035760;28;20048;-66
2022/07/28 00:48:41;;;;;;;15.03;7.03;;;;;;;;;;5028850;28;20022;-65
2022/07/28 00:51:08;;;;;;;13.87;7.57;;;;;;;;;;5030096;28;20036;-65
2022/07/28 00:53:33;;;;;;;13.67;8.30;;;;;;;;;;5030847;28;20041;-65
2022/07/28 00:55:58;;;;;;;16.83;7.90;;;;;;;;;;5033616;28;20045;-65
2022/07/28 00:58:25;;;;;;;13.83;8.37;;;;;;;;;;5030705;28;20541;-66
2022/07/28 01:00:50;;;;;;;13.07;7.87;;;;;;;;;;5030923;28;20021;-65
2022/07/28 01:03:15;;;;;;;15.37;8.70;;;;;;;;;;5030590;28;20393;-66
2022/07/28 01:06:01;;;;;;;15.57;8.17;;;;;;;;;;5030854;28;20053;-65
2022/07/28 01:08:45;;;;;;;17.23;7.57;;;;;;;;;;5030337;28;20037;-66
2022/07/28 01:11:20;;;;;;;18.70;8.27;;;;;;;;;;5031062;28;20037;-66
2022/07/28 01:13:48;;;;;;;12.50;5.80;;;;;;;;;;5029404;28;20035;-66
2022/07/28 01:16:13;;;;;;;10.97;6.07;;;;;;;;;;5031463;28;20124;-65
2022/07/28 01:18:46;;;;;;;15.33;8.13;;;;;;;;;;5033831;28;20108;-65
2022/07/28 01:21:13;;;;;;;12.33;6.40;;;;;;;;;;5034522;28;20437;-65
2022/07/28 01:24:02;;;;;;;11.90;6.77;;;;;;;;;;5034064;28;20083;-65
2022/07/28 01:26:45;;;;;;;15.47;7.80;;;;;;;;;;5034728;28;20029;-66
2022/07/28 01:29:10;;;;;;;16.67;8.70;;;;;;;;;;5033088;28;20109;-65
2022/07/28 01:31:38;;;;;;;18.60;8.70;;;;;;;;;;5032531;28;20160;-66
2022/07/28 01:34:08;;;;;;;17.10;8.17;;;;;;;;;;5035535;28;20025;-65
2022/07/28 01:36:42;;;;;;;19.57;8.40;;;;;;;;;;5033141;28;20025;-66
2022/07/28 01:39:08;;;;;;;18.50;9.50;;;;;;;;;;5033876;28;20473;-65
2022/07/28 01:41:35;;;;;;;16.77;8.97;;;;;;;;;;5034101;28;20381;-65
2022/07/28 01:44:03;;;;;;;18.07;8.60;;;;;;;;;;5034946;28;20026;-65
2022/07/28 01:46:29;;;;;;;17.87;8.93;;;;;;;;;;5033530;28;20023;-65
2022/07/28 01:48:56;;;;;;;20.13;9.47;;;;;;;;;;5034442;28;20025;-66
2022/07/28 01:51:22;;;;;;;18.77;9.17;;;;;;;;;;5034128;28;20146;-66
2022/07/28 01:53:48;;;;;;;22.27;10.27;;;;;;;;;;5033556;28;20041;-66
2022/07/28 01:56:15;;;;;;;16.20;8.97;;;;;;;;;;5032926;28;20018;-66
2022/07/28 01:58:42;;;;;;;15.60;7.60;;;;;;;;;;5032018;28;20029;-66
2022/07/28 02:01:09;;;;;;;19.50;7.60;;;;;;;;;;5033618;28;20028;-65
2022/07/28 02:03:36;;;;;;;13.47;7.43;;;;;;;;;;5033052;28;20606;-66
2022/07/28 02:06:02;;;;;;;13.77;7.17;;;;;;;;;;5034209;28;20049;-66
2022/07/28 02:08:28;;;;;;;12.87;6.50;;;;;;;;;;5033180;28;20029;-66
2022/07/28 02:13:40;;;;;;;12.93;5.90;;;;;;;;;;5021193;28;20560;-65
2022/07/28 02:16:07;;;;;;;11.13;6.57;;;;;;;;;;5033409;28;20629;-65
2022/07/28 02:18:34;;;;;;;14.77;6.80;;;;;;;;;;5034188;28;20026;-65
2022/07/28 02:21:00;;;;;;;13.10;7.00;;;;;;;;;;5033708;28;20109;-66
2022/07/28 02:23:25;;;;;;;11.63;6.27;;;;;;;;;;5033120;28;20113;-65
2022/07/28 02:25:51;;;;;;;11.77;6.00;;;;;;;;;;5033541;28;20075;-66
2022/07/28 02:28:20;;;;;;;12.37;5.23;;;;;;;;;;5032484;28;20048;-66
2022/07/28 02:30:56;;;;;;;11.33;5.20;;;;;;;;;;5033689;28;20446;-65
2022/07/28 02:33:22;;;;;;;14.67;6.30;;;;;;;;;;5032794;28;20033;-66
2022/07/28 02:35:51;;;;;;;10.90;5.30;;;;;;;;;;5031675;28;20112;-65
2022/07/28 02:38:20;;;;;;;13.57;5.50;;;;;;;;;;5032826;28;20080;-66
2022/07/28 02:40:47;;;;;;;17.77;6.40;;;;;;;;;;5033306;28;20075;-66
2022/07/28 02:43:14;;;;;;;12.97;5.70;;;;;;;;;;5032574;28;20112;-65
2022/07/28 02:45:41;;;;;;;9.23;4.73;;;;;;;;;;5033229;28;20097;-66
2022/07/28 02:48:09;;;;;;;12.57;5.27;;;;;;;;;;5032646;28;20125;-65
2022/07/28 02:50:35;;;;;;;11.70;4.90;;;;;;;;;;5033312;28;20052;-66
2022/07/28 02:53:01;;;;;;;9.73;5.17;;;;;;;;;;5032076;28;20457;-66
2022/07/28 02:55:27;;;;;;;15.17;5.30;;;;;;;;;;5032785;28;20023;-66
2022/07/28 02:57:53;;;;;;;12.67;6.13;;;;;;;;;;5031327;28;20408;-66
2022/07/28 03:00:19;;;;;;;16.53;6.50;;;;;;;;;;5032922;28;20160;-66
2022/07/28 03:02:47;;;;;;;16.80;7.67;;;;;;;;;;5032777;28;20025;-66
2022/07/28 03:05:16;;;;;;;19.10;7.27;;;;;;;;;;5032177;28;20071;-66
2022/07/28 03:07:41;;;;;;;11.43;6.33;;;;;;;;;;5032272;28;20496;-66
2022/07/28 03:10:08;;;;;;;14.97;6.50;;;;;;;;;;5032602;28;20021;-66
2022/07/28 03:12:34;;;;;;;16.57;7.63;;;;;;;;;;5032437;28;20494;-66
2022/07/28 03:14:59;;;;;;;23.20;7.80;;;;;;;;;;5032698;28;20056;-66
2022/07/28 03:17:24;;;;;;;10.73;5.87;;;;;;;;;;5031124;28;20029;-66
2022/07/28 03:19:49;;;;;;;12.47;5.30;;;;;;;;;;5032323;28;20035;-65
2022/07/28 03:22:14;;;;;;;11.60;5.50;;;;;;;;;;5033632;28;20026;-66
2022/07/28 03:24:49;;;;;;;7.67;4.90;;;;;;;;;;5031426;28;20021;-66
2022/07/28 03:27:17;;;;;;;11.30;4.97;;;;;;;;;;5031402;28;20527;-66
2022/07/28 03:29:45;;;;;;;17.20;5.77;;;;;;;;;;5031809;28;20020;-66
2022/07/28 03:32:11;;;;;;;14.57;5.80;;;;;;;;;;5032871;28;20044;-66
2022/07/28 03:34:37;;;;;;;12.43;5.80;;;;;;;;;;5032439;28;20041;-66
2022/07/28 03:37:04;;;;;;;11.40;5.70;;;;;;;;;;5035584;28;20053;-66
2022/07/28 03:39:31;;;;;;;11.27;5.73;;;;;;;;;;5030867;28;20035;-66
2022/07/28 03:41:58;;;;;;;11.67;6.17;;;;;;;;;;5032483;28;20450;-66
2022/07/28 03:44:23;;;;;;;10.00;5.30;;;;;;;;;;5031965;28;20025;-66
2022/07/28 03:46:48;;;;;;;12.40;5.63;;;;;;;;;;5031798;28;20753;-66
2022/07/28 03:49:14;;;;;;;8.80;5.33;;;;;;;;;;5031855;28;20033;-66
2022/07/28 03:51:39;;;;;;;15.87;6.07;;;;;;;;;;5031552;28;20509;-66
2022/07/28 03:54:04;;;;;;;13.60;6.03;;;;;;;;;;5031981;28;20025;-66
2022/07/28 03:56:30;;;;;;;11.90;5.80;;;;;;;;;;5031674;28;20017;-66
2022/07/28 03:58:56;;;;;;;11.80;6.10;;;;;;;;;;5031857;28;20094;-66
2022/07/28 04:01:21;;;;;;;11.67;5.90;;;;;;;;;;5031608;28;20369;-66
2022/07/28 04:03:46;;;;;;;12.20;6.33;;;;;;;;;;5030524;28;20025;-66
2022/07/28 04:06:11;;;;;;;17.57;7.07;;;;;;;;;;5032096;28;20481;-66
2022/07/28 04:08:37;;;;;;;12.10;6.80;;;;;;;;;;5031087;28;20025;-66
2022/07/28 04:11:02;;;;;;;11.60;5.90;;;;;;;;;;5031956;28;20535;-66
2022/07/28 04:13:27;;;;;;;13.27;5.67;;;;;;;;;;5031175;28;20476;-66
2022/07/28 04:15:52;;;;;;;11.10;5.80;;;;;;;;;;5031253;28;20394;-66
2022/07/28 04:18:18;;;;;;;11.63;5.90;;;;;;;;;;5031566;28;20079;-66
2022/07/28 04:20:43;;;;;;;11.50;5.57;;;;;;;;;;5031153;28;20021;-66
2022/07/28 04:23:09;;;;;;;10.83;4.87;;;;;;;;;;5030544;28;20448;-66
2022/07/28 04:25:34;;;;;;;10.27;5.60;;;;;;;;;;5031107;28;20051;-66
2022/07/28 04:28:01;;;;;;;11.53;5.73;;;;;;;;;;5032646;28;20013;-66
2022/07/28 04:30:27;;;;;;;12.80;5.50;;;;;;;;;;5031125;28;20470;-66
2022/07/28 04:32:53;;;;;;;13.43;5.50;;;;;;;;;;5030504;28;20029;-66
2022/07/28 04:35:19;;;;;;;11.60;4.90;;;;;;;;;;5031186;28;20465;-66
2022/07/28 04:37:45;;;;;;;14.53;5.80;;;;;;;;;;5031341;28;20088;-66
2022/07/28 04:40:11;;;;;;;12.90;6.13;;;;;;;;;;5030786;28;20067;-66
2022/07/28 04:42:37;;;;;;;11.13;4.40;;;;;;;;;;5032913;28;20545;-66
2022/07/28 04:45:03;;;;;;;8.57;4.10;;;;;;;;;;5029539;28;20090;-66
2022/07/28 04:47:28;;;;;;;8.23;3.70;;;;;;;;;;5030505;28;20112;-66
2022/07/28 04:49:54;;;;;;;10.03;3.90;;;;;;;;;;5030163;28;20026;-66
2022/07/28 04:52:20;;;;;;;6.17;3.70;;;;;;;;;;5029727;28;20037;-66
2022/07/28 04:54:45;;;;;;;8.93;3.70;;;;;;;;;;5031707;28;20025;-66
2022/07/28 04:57:11;;;;;;;9.63;3.57;;;;;;;;;;5030330;28;20028;-66
2022/07/28 04:59:36;;;;;;;9.97;3.63;;;;;;;;;;5029995;28;20105;-66
2022/07/28 05:02:01;;;;;;;8.57;4.00;;;;;;;;;;5039644;28;20048;-66
2022/07/28 05:04:27;;;;;;;20.77;5.37;;;;;;;;;;5032485;28;20387;-66
2022/07/28 05:06:52;;;;;;;7.40;3.80;;;;;;;;;;5030713;28;20106;-66
2022/07/28 05:09:17;;;;;;;7.47;3.87;;;;;;;;;;5030675;28;20025;-66
2022/07/28 05:11:42;;;;;;;11.53;3.97;;;;;;;;;;5031944;28;20029;-66
2022/07/28 05:14:08;;;;;;;8.50;4.03;;;;;;;;;;5029835;28;20045;-66
2022/07/28 05:16:33;;;;;;;8.43;3.47;;;;;;;;;;5029615;28;21889;-66
2022/07/28 05:18:59;;;;;;;8.83;3.40;;;;;;;;;;5030983;28;20064;-66
2022/07/28 05:21:24;;;;;;;8.87;3.37;;;;;;;;;;5031729;28;20080;-66
2022/07/28 05:23:49;;;;;;;7.97;3.53;;;;;;;;;;5029540;28;20079;-66
2022/07/28 05:26:14;;;;;;;6.37;3.10;;;;;;;;;;5032160;28;20025;-65
2022/07/28 05:28:40;;;;;;;6.90;3.00;;;;;;;;;;5030142;28;20797;-66
2022/07/28 05:31:06;;;;;;;6.80;3.40;;;;;;;;;;5031283;28;20095;-66
2022/07/28 05:33:32;;;;;;;10.27;3.00;;;;;;;;;;5030242;28;20037;-66
2022/07/28 05:35:57;;;;;;;6.13;3.23;;;;;;;;;;5030954;28;20498;-66
2022/07/28 05:38:22;;;;;;;8.17;2.93;;;;;;;;;;5029024;28;20049;-66
2022/07/28 05:40:48;;;;;;;7.50;3.50;;;;;;;;;;5030900;28;20017;-66
2022/07/28 05:43:13;;;;;;;11.27;3.80;;;;;;;;;;5031912;28;20029;-66
2022/07/28 05:45:38;;;;;;;7.10;3.40;;;;;;;;;;5030562;28;20108;-66
2022/07/28 05:48:04;;;;;;;7.83;3.40;;;;;;;;;;5029921;28;20152;-66
2022/07/28 05:50:29;;;;;;;10.05;3.30;;;;;;;;;;5030684;28;20108;-66
2022/07/28 05:52:55;;;;;;;8.63;3.38;;;;;;;;;;5031582;28;20111;-66
2022/07/28 05:55:20;;;;;;;7.82;3.25;;;;;;;;;;5029592;28;20029;-66
2022/07/28 05:57:45;;;;;;;8.95;2.83;;;;;;;;;;5030644;28;20028;-66
2022/07/28 06:00:15;;;;;;;7.05;3.00;;;;;;;;;;5029748;28;20080;-66
2022/07/28 06:02:40;;;;;;;10.52;2.88;;;;;;;;;;5032398;28;20021;-66
2022/07/28 06:05:06;;;;;;;8.02;2.70;;;;;;;;;;5033434;28;20384;-66
2022/07/28 06:07:31;;;;;;;8.50;2.47;;;;;;;;;;5035842;28;20028;-66
2022/07/28 06:09:57;;;;;;;9.18;2.47;;;;;;;;;;5033637;28;20057;-66
2022/07/28 06:12:22;;;;;;;7.85;2.00;;;;;;;;;;5035594;28;20115;-66
2022/07/28 06:14:47;;;;;;;5.95;1.92;;;;;;;;;;5033518;28;20413;-66
2022/07/28 06:17:14;;;;;;;5.97;1.85;;;;;;;;;;5034597;28;20029;-66
2022/07/28 06:19:39;;;;;;;6.13;1.70;;;;;;;;;;5033744;28;20039;-66
2022/07/28 06:22:05;;;;;;;5.72;1.65;;;;;;;;;;5033283;28;20120;-67
2022/07/28 06:24:30;;;;;;;5.97;1.90;;;;;;;;;;5033429;28;20225;-67
2022/07/28 06:26:56;;;;;;;8.48;1.85;;;;;;;;;;5035988;28;20036;-67
2022/07/28 06:29:23;;;;;;;6.30;1.75;;;;;;;;;;5033589;28;20021;-66
2022/07/28 06:31:48;;;;;;;7.47;1.80;;;;;;;;;;5033763;28;20029;-66
2022/07/28 06:34:14;;;;;;;6.78;1.60;;;;;;;;;;5035164;28;20021;-66
2022/07/28 06:36:39;;;;;;;7.20;1.50;;;;;;;;;;5033395;28;20049;-66
2022/07/28 06:39:04;;;;;;;7.35;1.52;;;;;;;;;;5032319;28;20024;-66
2022/07/28 06:41:29;;;;;;;5.07;1.23;;;;;;;;;;5032801;28;20077;-66
2022/07/28 06:43:55;;;;;;;6.13;1.50;;;;;;;;;;5031667;28;20492;-67
2022/07/28 06:46:20;;;;;;;4.80;1.35;;;;;;;;;;5034044;28;20018;-67
2022/07/28 06:48:46;;;;;;;5.60;1.38;;;;;;;;;;5043126;28;20044;-66
2022/07/28 06:51:11;;;;;;;9.88;2.00;;;;;;;;;;5033414;28;20021;-67
2022/07/28 06:53:38;;;;;;;4.18;1.15;;;;;;;;;;5032629;28;20103;-66
2022/07/28 06:56:04;;;;;;;7.00;1.38;;;;;;;;;;5032684;28;20466;-66
2022/07/28 06:58:29;;;;;;;4.53;1.30;;;;;;;;;;5032884;28;20429;-66
2022/07/28 07:00:54;;;;;;;5.80;1.20;;;;;;;;;;5035694;28;20020;-67
2022/07/28 07:03:19;;;;;;;5.78;1.25;;;;;;;;;;5030967;28;20021;-67
2022/07/28 07:05:45;;;;;;;4.80;0.80;;;;;;;;;;5032884;28;20097;-67
2022/07/28 07:08:10;;;;;;;2.17;0.80;;;;;;;;;;5033948;28;20044;-66
2022/07/28 07:10:35;;;;;;;3.80;0.77;;;;;;;;;;5031924;28;20094;-66
2022/07/28 07:13:00;;;;;;;6.07;0.98;;;;;;;;;;5032707;28;20060;-66
2022/07/28 07:15:26;;;;;;;6.47;1.63;;;;;;;;;;5034203;28;20477;-67
2022/07/28 07:17:53;;;;;;;4.30;1.15;;;;;;;;;;5032867;28;20717;-66
2022/07/28 07:20:18;;;;;;;4.57;1.05;;;;;;;;;;5031653;28;20082;-66
2022/07/28 07:22:44;;;;;;;4.18;1.08;;;;;;;;;;5032174;28;20453;-67
2022/07/28 07:25:10;;;;;;;6.82;1.10;;;;;;;;;;5031990;28;20029;-66
2022/07/28 07:27:35;;;;;;;3.55;0.82;;;;;;;;;;5032513;28;20071;-67
2022/07/28 07:30:03;;;;;;;3.42;0.90;;;;;;;;;;5030992;28;20444;-67
2022/07/28 07:32:28;;;;;;;3.03;1.00;;;;;;;;;;5032962;28;20382;-67
2022/07/28 07:34:53;;;;;;;4.60;0.98;;;;;;;;;;5033730;28;20024;-67
2022/07/28 07:37:20;;;;;;;4.10;0.77;;;;;;;;;;5031924;28;20083;-67
2022/07/28 07:39:45;;;;;;;3.95;0.90;;;;;;;;;;5031786;28;20433;-66
2022/07/28 07:42:10;;;;;;;6.07;1.10;;;;;;;;;;5035884;28;20017;-67
2022/07/28 07:44:35;;;;;;;3.65;0.90;;;;;;;;;;5031922;28;20029;-66
2022/07/28 07:47:01;;;;;;;5.25;0.70;;;;;;;;;;5032526;28;20067;-66
2022/07/28 07:49:26;;;;;;;3.75;0.82;;;;;;;;;;5031694;28;20020;-66
2022/07/28 07:51:51;;;;;;;2.17;0.60;;;;;;;;;;5033246;28;20043;-66
2022/07/28 07:54:17;;;;;;;4.03;0.82;;;;;;;;;;5031949;28;20022;-67
2022/07/28 07:56:42;;;;;;;5.47;0.90;;;;;;;;;;5031390;28;20483;-66
2022/07/28 07:59:07;;;;;;;3.92;0.95;;;;;;;;;;5031694;28;20538;-67
2022/07/28 08:01:32;;;;;;;4.07;0.68;;;;;;;;;;5033416;28;20105;-66
2022/07/28 08:03:59;;;;;;;3.30;0.70;;;;;;;;;;5030894;28;20466;-66
2022/07/28 08:06:26;;;;;;;4.93;0.77;;;;;;;;;;5031476;28;20104;-66
2022/07/28 08:08:51;;;;;;;3.72;0.70;;;;;;;;;;5030993;28;20107;-66
2022/07/28 08:11:17;;;;;;;3.10;0.60;;;;;;;;;;5031716;28;20097;-67
2022/07/28 08:13:42;;;;;;;4.18;0.68;;;;;;;;;;5032115;28;20021;-66
2022/07/28 08:16:07;;;;;;;5.55;1.13;;;;;;;;;;5031745;28;20025;-66
2022/07/28 08:18:32;;;;;;;4.25;0.80;;;;;;;;;;5030803;28;20040;-66
2022/07/28 08:20:57;;;;;;;5.28;0.70;;;;;;;;;;5031690;28;20044;-66
2022/07/28 08:23:23;;;;;;;4.28;0.73;;;;;;;;;;5031339;28;20470;-66
2022/07/28 08:25:48;;;;;;;1.92;0.65;;;;;;;;;;5029584;28;20025;-67
2022/07/28 08:28:13;;;;;;;5.05;0.75;;;;;;;;;;5031093;28;20079;-66
2022/07/28 08:30:38;;;;;;;4.25;0.60;;;;;;;;;;5029898;28;20021;-67
2022/07/28 08:33:04;;;;;;;2.63;0.73;;;;;;;;;;5029814;28;20040;-67
2022/07/28 08:35:29;;;;;;;1.98;0.60;;;;;;;;;;5031723;28;20029;-66
2022/07/28 08:37:55;;;;;;;2.22;0.60;;;;;;;;;;5032123;28;20021;-67
2022/07/28 08:40:20;;;;;;;4.00;0.70;;;;;;;;;;5031273;28;20105;-66
2022/07/28 08:42:49;;;;;;;8.00;0.90;;;;;;;;;;5025228;28;20072;-67
2022/07/28 08:45:16;;;;;;;4.57;0.80;;;;;;;;;;5031025;28;20025;-66
2022/07/28 08:47:41;;;;;;;3.05;0.70;;;;;;;;;;5029711;28;20021;-66
2022/07/28 08:50:08;;;;;;;3.95;0.70;;;;;;;;;;5037493;28;20013;-66
2022/07/28 08:52:34;;;;;;;4.40;0.77;;;;;;;;;;5030945;28;20029;-68
2022/07/28 08:55:01;;;;;;;4.72;0.88;;;;;;;;;;5033615;28;20028;-67
2022/07/28 08:57:30;;;;;;;4.43;0.90;;;;;;;;;;5030927;28;20014;-66
2022/07/28 08:59:55;;;;;;;2.10;0.77;;;;;;;;;;5028950;28;20021;-66
2022/07/28 09:02:21;;;;;;;3.97;0.85;;;;;;;;;;5030748;28;20087;-66
2022/07/28 09:04:46;;;;;;;5.40;0.90;;;;;;;;;;5030780;28;20021;-67
2022/07/28 09:07:12;;;;;;;2.05;0.70;;;;;;;;;;5030391;28;20055;-66
2022/07/28 09:09:38;;;;;;;3.63;0.77;;;;;;;;;;5030960;28;20112;-67
2022/07/28 09:12:04;;;;;;;2.00;0.70;;;;;;;;;;5032022;28;20037;-67
2022/07/28 09:14:30;;;;;;;5.15;0.80;;;;;;;;;;5030885;28;20025;-67
2022/07/28 09:16:57;;;;;;;2.92;0.70;;;;;;;;;;5030292;28;20024;-67
2022/07/28 09:19:23;;;;;;;4.03;0.70;;;;;;;;;;5029838;28;20131;-67
2022/07/28 09:21:48;;;;;;;4.80;0.93;;;;;;;;;;5032753;28;20029;-67
2022/07/28 09:24:32;;;;;;;2.80;0.70;;;;;;;;;;5029124;28;20021;-67
2022/07/28 09:27:02;;;;;;;6.22;0.80;;;;;;;;;;5030760;28;20506;-67
2022/07/28 09:29:27;;;;;;;4.00;0.80;;;;;;;;;;5030209;28;20370;-67
2022/07/28 09:31:52;;;;;;;6.82;0.98;;;;;;;;;;5031257;28;20024;-67
2022/07/28 09:34:18;;;;;;;2.22;0.70;;;;;;;;;;5030133;28;20025;-67
2022/07/28 09:36:43;;;;;;;3.42;1.00;;;;;;;;;;5030760;28;20024;-66
2022/07/28 09:39:08;;;;;;;6.07;0.80;;;;;;;;;;5033928;28;20029;-66
2022/07/28 09:41:47;;;;;;;4.70;0.80;;;;;;;;;;5033853;28;20075;-66
2022/07/28 09:44:18;;;;;;;3.47;0.90;;;;;;;;;;5034230;28;20103;-66
2022/07/28 09:46:44;;;;;;;3.80;0.85;;;;;;;;;;5033760;28;20045;-66
2022/07/28 09:49:09;;;;;;;3.60;0.90;;;;;;;;;;5033995;28;20057;-66
2022/07/28 09:51:34;;;;;;;2.50;0.80;;;;;;;;;;5033830;28;20033;-66
2022/07/28 09:54:06;;;;;;;2.78;0.90;;;;;;;;;;5036968;28;20033;-67
2022/07/28 09:56:31;;;;;;;2.03;0.82;;;;;;;;;;5032838;28;20104;-66
2022/07/28 09:58:58;;;;;;;3.72;0.90;;;;;;;;;;5034238;28;20101;-66
2022/07/28 10:01:23;;;;;;;4.97;0.90;;;;;;;;;;5034271;28;20041;-66
2022/07/28 10:03:51;;;;;;;3.70;1.00;;;;;;;;;;5032867;28;20114;-66
2022/07/28 10:06:23;;;;;;;2.47;0.90;;;;;;;;;;5033681;28;20488;-66
2022/07/28 10:08:49;;;;;;;2.97;0.70;;;;;;;;;;5033290;28;20057;-67
2022/07/28 10:11:16;;;;;;;4.72;0.90;;;;;;;;;;5035340;28;20647;-66
2022/07/28 10:13:54;;;;;;;2.63;0.70;;;;;;;;;;5034125;28;20029;-67
2022/07/28 10:16:20;;;;;;;4.47;0.80;;;;;;;;;;5029946;28;20060;-66
2022/07/28 10:18:46;;;;;;;3.13;0.65;;;;;;;;;;5033352;28;20486;-67
2022/07/28 10:21:12;;;;;;;3.10;0.80;;;;;;;;;;5035331;28;20029;-66
2022/07/28 10:23:41;;;;;;;3.75;0.75;;;;;;;;;;5033162;28;20026;-67
2022/07/28 10:26:08;;;;;;;3.67;0.90;;;;;;;;;;5035285;28;20108;-67
2022/07/28 10:28:35;;;;;;;2.88;0.70;;;;;;;;;;5037033;28;20048;-67
2022/07/28 10:31:01;;;;;;;1.08;0.60;;;;;;;;;;5032776;28;20025;-66
2022/07/28 10:33:28;;;;;;;2.55;0.73;;;;;;;;;;5032520;28;20037;-66
2022/07/28 10:35:54;;;;;;;3.13;0.85;;;;;;;;;;5033806;28;20381;-67
2022/07/28 10:38:20;;;;;;;3.22;0.80;;;;;;;;;;5033356;28;20107;-66
2022/07/28 10:40:46;;;;;;;2.95;0.70;;;;;;;;;;5033001;28;20105;-66
2022/07/28 10:43:12;;;;;;;2.55;0.60;;;;;;;;;;5031680;28;20026;-66
2022/07/28 10:45:38;;;;;;;2.25;0.60;;;;;;;;;;5031411;28;20430;-66
2022/07/28 10:48:06;;;;;;;3.58;0.65;;;;;;;;;;5034194;28;20048;-66
2022/07/28 10:50:35;;;;;;;2.70;0.75;;;;;;;;;;5033081;28;20104;-66
2022/07/28 10:53:01;;;;;;;5.57;0.70;;;;;;;;;;5033440;28;20091;-67
2022/07/28 10:55:43;;;;;;;3.22;0.70;;;;;;;;;;5033158;28;20040;-67
2022/07/28 10:58:16;;;;;;;5.40;0.60;;;;;;;;;;5032346;28;20029;-67
2022/07/28 11:00:50;;;;;;;3.47;0.68;;;;;;;;;;5030420;28;20485;-67
2022/07/28 11:03:34;;;;;;;3.25;0.52;;;;;;;;;;5035281;28;20417;-67
2022/07/28 11:06:19;;;;;;;3.22;0.63;;;;;;;;;;5028730;28;20520;-67
2022/07/28 11:08:44;;;;;;;2.97;0.70;;;;;;;;;;5030292;28;20516;-66
2022/07/28 11:11:10;;;;;;;3.42;0.77;;;;;;;;;;5033413;28;20053;-66
2022/07/28 11:13:35;;;;;;;3.75;1.10;;;;;;;;;;5031285;28;20029;-67
2022/07/28 11:16:13;;;;;;;3.33;0.50;;;;;;;;;;5032832;28;20084;-66
2022/07/28 11:18:57;;;;;;;4.57;1.10;;;;;;;;;;5031146;28;20079;-66
2022/07/28 11:21:22;;;;;;;2.92;0.50;;;;;;;;;;5031344;28;20028;-66
2022/07/28 11:23:55;;;;;;;1.60;0.50;;;;;;;;;;5032549;28;20029;-66
2022/07/28 11:26:21;;;;;;;4.50;1.13;;;;;;;;;;5032826;28;20492;-67
2022/07/28 11:29:04;;;;;;;2.72;0.80;;;;;;;;;;5031992;28;20049;-66
2022/07/28 11:31:45;;;;;;;4.10;0.50;;;;;;;;;;5031853;28;20052;-66
2022/07/28 11:34:10;;;;;;;2.92;0.65;;;;;;;;;;5032520;28;20030;-66
2022/07/28 11:36:54;;;;;;;3.10;0.70;;;;;;;;;;5033997;28;20021;-66
2022/07/28 11:39:23;;;;;;;2.40;0.70;;;;;;;;;;5031788;28;20032;-66
2022/07/28 11:41:48;;;;;;;4.63;0.70;;;;;;;;;;5033620;28;20146;-66
2022/07/28 11:44:23;;;;;;;3.35;0.80;;;;;;;;;;5031552;28;20108;-67
2022/07/28 11:46:48;;;;;;;3.78;0.68;;;;;;;;;;5031759;28;20028;-67
2022/07/28 11:49:15;;;;;;;4.13;1.15;;;;;;;;;;5032897;28;20029;-67
2022/07/28 11:51:40;;;;;;;2.15;0.60;;;;;;;;;;5031463;28;21005;-66
2022/07/28 11:54:14;;;;;;;5.53;0.82;;;;;;;;;;5032029;28;20048;-66
2022/07/28 11:56:40;;;;;;;3.17;0.70;;;;;;;;;;5030769;28;20548;-66
2022/07/28 11:59:06;;;;;;;2.72;0.80;;;;;;;;;;5032134;28;20104;-66
2022/07/28 12:01:32;;;;;;;3.70;0.77;;;;;;;;;;5031009;28;20197;-66
2022/07/28 12:04:00;;;;;;;2.60;0.63;;;;;;;;;;5031751;28;20056;-66
2022/07/28 12:06:35;;;;;;;6.75;0.70;;;;;;;;;;5032169;28;20385;-66
2022/07/28 12:09:02;;;;;;;3.28;0.77;;;;;;;;;;5031086;28;20018;-66
2022/07/28 12:11:30;;;;;;;5.13;0.70;;;;;;;;;;5030532;28;20029;-66
2022/07/28 12:13:57;;;;;;;2.95;0.75;;;;;;;;;;5031701;28;20033;-66
2022/07/28 12:16:25;;;;;;;2.22;0.80;;;;;;;;;;5032054;28;20018;-66
2022/07/28 12:18:51;;;;;;;1.80;0.50;;;;;;;;;;5031610;28;20029;-67
2022/07/28 12:21:16;;;;;;;4.78;0.60;;;;;;;;;;5030758;28;20107;-66
2022/07/28 12:23:41;;;;;;;3.65;0.80;;;;;;;;;;5031532;28;20478;-66
2022/07/28 12:26:07;;;;;;;2.10;0.68;;;;;;;;;;5031443;28;20021;-66
2022/07/28 12:28:32;;;;;;;3.65;0.80;;;;;;;;;;5030676;28;20017;-66
2022/07/28 12:31:10;;;;;;;2.92;0.70;;;;;;;;;;5033645;28;20460;-66
2022/07/28 12:33:36;;;;;;;2.35;0.70;;;;;;;;;;5016721;28;20025;-67
2022/07/28 12:36:01;;;;;;;7.03;0.77;;;;;;;;;;5031141;28;20025;-66
2022/07/28 12:38:26;;;;;;;2.80;0.73;;;;;;;;;;5031828;28;20110;-66
2022/07/28 12:40:52;;;;;;;3.10;0.70;;;;;;;;;;5031734;28;20052;-66
2022/07/28 12:43:25;;;;;;;3.92;0.68;;;;;;;;;;5030751;28;20112;-66
2022/07/28 12:45:50;;;;;;;2.35;0.60;;;;;;;;;;5037783;28;20037;-66
2022/07/28 12:48:17;;;;;;;2.58;0.65;;;;;;;;;;5029796;28;20032;-66
2022/07/28 12:50:43;;;;;;;2.15;0.40;;;;;;;;;;5029078;28;20544;-66
2022/07/28 12:53:09;;;;;;;3.05;0.80;;;;;;;;;;5041828;28;20033;-66
2022/07/28 12:55:35;;;;;;;2.17;0.65;;;;;;;;;;5036171;28;20588;-66
2022/07/28 12:58:01;;;;;;;2.75;0.63;;;;;;;;;;5032500;28;20113;-66
2022/07/28 13:00:31;;;;;;;2.95;0.70;;;;;;;;;;5033060;28;20025;-68
2022/07/28 13:02:57;;;;;;;3.15;0.60;;;;;;;;;;5030923;28;20108;-66
2022/07/28 13:05:28;;;;;;;2.65;0.70;;;;;;;;;;5032074;28;20029;-66
2022/07/28 13:08:00;;;;;;;3.03;0.80;;;;;;;;;;5031162;28;20017;-66
2022/07/28 13:10:26;;;;;;;2.80;0.80;;;;;;;;;;5033765;28;20104;-66
2022/07/28 13:13:04;;;;;;;3.22;0.80;;;;;;;;;;5032582;28;20113;-66
2022/07/28 13:15:30;;;;;;;3.00;0.60;;;;;;;;;;5034861;28;20474;-66
2022/07/28 13:17:56;;;;;;;3.40;0.50;;;;;;;;;;5032803;28;20449;-66
2022/07/28 13:20:23;;;;;;;1.50;0.60;;;;;;;;;;5033809;28;20032;-65
2022/07/28 13:22:48;;;;;;;1.98;0.50;;;;;;;;;;5035104;28;20032;-66
2022/07/28 13:25:14;;;;;;;2.95;0.52;;;;;;;;;;5015142;28;20022;-69
2022/07/28 13:27:39;;;;;;;2.58;0.60;;;;;;;;;;5033714;28;20104;-66
2022/07/28 13:30:06;;;;;;;3.40;0.80;;;;;;;;;;5031726;28;20013;-66
2022/07/28 13:32:32;;;;;;;2.60;0.70;;;;;;;;;;5032335;28;20151;-67
2022/07/28 13:34:58;;;;;;;4.50;0.80;;;;;;;;;;5036483;28;20037;-66
2022/07/28 13:37:23;;;;;;;4.00;0.80;;;;;;;;;;5033214;28;20069;-66
2022/07/28 13:39:51;;;;;;;2.28;0.70;;;;;;;;;;5033798;28;20684;-66
2022/07/28 13:42:17;;;;;;;3.25;0.63;;;;;;;;;;5035823;28;20025;-68
2022/07/28 13:44:42;;;;;;;3.10;0.82;;;;;;;;;;5034242;28;20097;-66
2022/07/28 13:47:07;;;;;;;4.95;0.70;;;;;;;;;;5033633;28;20478;-66
2022/07/28 13:49:33;;;;;;;4.25;0.80;;;;;;;;;;5033954;28;20018;-66
2022/07/28 13:51:59;;;;;;;1.80;0.60;;;;;;;;;;5036359;28;20125;-66
2022/07/28 13:54:25;;;;;;;2.88;0.60;;;;;;;;;;5034934;28;20409;-66
2022/07/28 13:56:50;;;;;;;3.28;0.63;;;;;;;;;;5034683;28;20021;-67
2022/07/28 13:59:27;;;;;;;1.83;0.60;;;;;;;;;;5033295;28;20104;-66
2022/07/28 14:01:54;;;;;;;3.30;0.60;;;;;;;;;;5033627;28;20034;-66
2022/07/28 14:04:19;;;;;;;2.90;0.70;;;;;;;;;;5036988;28;20052;-65
2022/07/28 14:06:45;;;;;;;3.17;0.90;;;;;;;;;;5033946;28;20013;-66
2022/07/28 14:09:10;;;;;;;2.40;0.70;;;;;;;;;;5033874;28;20018;-66
2022/07/28 14:11:36;;;;;;;3.13;0.80;;;;;;;;;;5034051;28;20484;-67
2022/07/28 14:14:01;;;;;;;3.53;0.80;;;;;;;;;;5034007;28;20060;-66
2022/07/28 14:16:26;;;;;;;3.28;0.70;;;;;;;;;;5033959;28;20025;-66
2022/07/28 14:18:51;;;;;;;3.25;0.80;;;;;;;;;;5035420;28;20148;-65
2022/07/28 14:21:17;;;;;;;4.22;1.00;;;;;;;;;;5033702;28;20045;-66
2022/07/28 14:23:42;;;;;;;3.00;0.68;;;;;;;;;;5038567;28;20068;-65
2022/07/28 14:26:08;;;;;;;4.35;1.00;;;;;;;;;;5033562;28;20044;-66
2022/07/28 14:28:33;;;;;;;2.20;0.60;;;;;;;;;;5033040;28;20033;-67
2022/07/28 14:30:59;;;;;;;4.00;0.80;;;;;;;;;;5035053;28;20016;-66
2022/07/28 14:33:26;;;;;;;2.40;0.70;;;;;;;;;;5033011;28;20053;-67
2022/07/28 14:35:51;;;;;;;4.22;0.80;;;;;;;;;;5033692;28;20112;-66
2022/07/28 14:38:16;;;;;;;4.22;0.80;;;;;;;;;;5035039;28;20116;-66